createdAt,value
2022-09-15T00:04:00.524Z,3.07
2022-09-15T00:08:09.828Z,3.40
2022-09-15T00:12:20.646Z,3.33
2022-09-15T00:16:32.109Z,3.83
2022-09-15T00:20:43.849Z,4.13
2022-09-15T00:24:53.185Z,3.10
2022-09-15T00:29:04.745Z,2.70
2022-09-15T00:33:15.002Z,2.67
2022-09-15T00:37:24.364Z,3.03
2022-09-15T00:41:34.165Z,2.77
2022-09-15T00:45:45.444Z,2.30
2022-09-15T00:50:10.442Z,2.97
2022-09-15T00:54:30.945Z,3.17
2022-09-15T00:58:50.605Z,2.77
2022-09-15T01:03:02.435Z,2.67
2022-09-15T01:07:18.565Z,2.60
2022-09-15T01:11:29.485Z,2.37
2022-09-15T01:15:49.249Z,2.80
2022-09-15T01:20:41.319Z,3.37
2022-09-15T01:25:06.497Z,3.37
2022-09-15T01:35:06.537Z,3.57
2022-09-15T01:39:39.158Z,3.97
2022-09-15T01:48:53.902Z,3.40
2022-09-15T01:53:25.586Z,3.10
2022-09-15T01:57:50.145Z,3.50
2022-09-15T02:02:10.522Z,3.80
2022-09-15T02:06:26.525Z,4.80
2022-09-15T02:10:45.785Z,5.03
2022-09-15T02:15:03.944Z,5.30
2022-09-15T02:19:22.241Z,5.20
2022-09-15T02:28:18.665Z,6.37
2022-09-15T02:32:31.824Z,6.80
2022-09-15T02:36:57.865Z,6.67
2022-09-15T02:51:35.005Z,7.47
2022-09-15T02:55:55.185Z,6.70
2022-09-15T03:00:21.802Z,6.17
2022-09-15T03:04:33.344Z,5.93
2022-09-15T03:27:06.825Z,7.87
2022-09-15T04:32:57.770Z,14.73
2022-09-15T05:05:35.225Z,21.43
2022-09-15T05:09:58.849Z,23.27
2022-09-15T05:14:10.204Z,24.17
2022-09-15T05:32:06.406Z,25.20
2022-09-15T05:41:08.625Z,25.17
2022-09-15T05:45:52.948Z,24.30
2022-09-15T05:50:31.566Z,25.17
2022-09-15T05:54:41.005Z,26.33
2022-09-15T06:03:38.447Z,26.53
2022-09-15T06:17:39.986Z,21.20
2022-09-15T06:50:11.505Z,14.83
2022-09-15T06:54:20.709Z,14.33
2022-09-15T06:58:29.824Z,14.27
2022-09-15T07:02:39.287Z,12.70
2022-09-15T07:06:50.704Z,12.70
2022-09-15T07:11:00.545Z,12.50
2022-09-15T07:15:11.049Z,13.33
2022-09-15T07:19:19.946Z,12.53
2022-09-15T07:23:31.866Z,12.83
2022-09-15T07:27:40.826Z,12.27
2022-09-15T07:31:50.227Z,11.67
2022-09-15T07:36:00.024Z,10.60
2022-09-15T07:40:12.424Z,11.00
2022-09-15T07:44:21.606Z,10.00
2022-09-15T07:48:30.944Z,9.47
2022-09-15T07:52:40.023Z,8.70
2022-09-15T07:56:50.546Z,7.63
2022-09-15T08:01:04.265Z,6.53
2022-09-15T08:05:13.546Z,5.23
2022-09-15T08:09:22.944Z,5.07
2022-09-15T08:13:33.485Z,4.33
2022-09-15T08:17:42.504Z,3.87
2022-09-15T08:21:51.647Z,3.23
2022-09-15T08:26:00.771Z,3.87
2022-09-15T08:30:12.603Z,3.40
2022-09-15T08:34:21.925Z,3.60
2022-09-15T08:38:31.145Z,4.03
2022-09-15T08:42:44.909Z,4.00
2022-09-15T08:47:02.343Z,4.30
2022-09-15T08:51:21.063Z,3.30
2022-09-15T08:55:39.083Z,3.70
2022-09-15T08:59:48.243Z,4.40
2022-09-15T09:04:20.765Z,3.13
2022-09-15T09:08:56.486Z,3.20
2022-09-15T09:13:19.106Z,2.90
2022-09-15T09:17:52.644Z,3.10
2022-09-15T09:22:33.503Z,3.30
2022-09-15T09:26:42.627Z,3.10
2022-09-15T09:30:51.913Z,2.87
2022-09-15T09:35:07.111Z,3.03
2022-09-15T09:39:17.664Z,3.60
2022-09-15T09:43:28.251Z,3.20
2022-09-15T09:47:40.843Z,2.60
2022-09-15T09:51:54.125Z,2.87
2022-09-15T09:56:25.685Z,3.53
2022-09-15T10:00:36.485Z,3.40
2022-09-15T10:04:47.174Z,3.00
2022-09-15T10:08:58.748Z,3.37
2022-09-15T10:13:13.666Z,3.30
2022-09-15T10:17:25.252Z,3.13
2022-09-15T10:21:34.506Z,3.20
2022-09-15T10:25:58.742Z,3.33
2022-09-15T10:30:21.206Z,3.00
2022-09-15T10:34:34.687Z,2.60
2022-09-15T10:38:54.789Z,3.10
2022-09-15T10:43:17.804Z,2.73
2022-09-15T10:47:40.805Z,3.20
2022-09-15T10:52:02.510Z,3.13
2022-09-15T10:56:20.765Z,3.47
2022-09-15T11:00:37.876Z,3.37
2022-09-15T11:05:11.965Z,3.07
2022-09-15T11:09:23.825Z,2.67
2022-09-15T11:13:47.027Z,3.20
2022-09-15T11:18:14.227Z,2.70
2022-09-15T11:22:29.385Z,2.20
2022-09-15T11:26:43.945Z,2.20
2022-09-15T11:30:58.839Z,2.53
2022-09-15T11:35:44.645Z,3.10
2022-09-15T11:40:02.277Z,2.40
2022-09-15T11:44:25.946Z,2.30
2022-09-15T11:48:46.848Z,2.20
2022-09-15T11:53:00.588Z,2.30
2022-09-15T11:57:19.407Z,2.40
2022-09-15T12:01:34.361Z,2.90
2022-09-15T12:05:48.885Z,2.30
2022-09-15T12:10:05.826Z,2.20
2022-09-15T12:14:19.449Z,2.10
2022-09-15T12:18:39.942Z,2.30
2022-09-15T12:22:57.388Z,2.77
2022-09-15T12:27:06.746Z,2.50
2022-09-15T12:31:29.370Z,2.80
2022-09-15T12:35:38.625Z,2.40
2022-09-15T12:39:48.925Z,3.50
2022-09-15T12:44:00.936Z,3.17
2022-09-15T12:48:21.028Z,2.80
2022-09-15T12:52:30.907Z,3.17
2022-09-15T12:56:40.007Z,2.70
2022-09-15T13:01:16.614Z,2.40
2022-09-15T13:06:13.548Z,2.23
2022-09-15T13:10:39.847Z,2.07
2022-09-15T13:14:50.767Z,2.13
2022-09-15T13:19:18.194Z,2.03
2022-09-15T13:24:04.226Z,2.13
2022-09-15T13:32:45.306Z,2.03
2022-09-15T13:41:58.685Z,1.93
2022-09-15T13:46:19.650Z,2.33
2022-09-15T13:51:04.410Z,2.33
2022-09-15T13:55:26.565Z,2.60
2022-09-15T13:59:36.447Z,2.33
2022-09-15T14:03:51.085Z,2.03
2022-09-15T14:08:03.147Z,2.40
2022-09-15T14:12:15.409Z,2.70
2022-09-15T14:16:36.110Z,1.90
2022-09-15T14:20:58.664Z,2.50
2022-09-15T14:25:10.608Z,2.40
2022-09-15T14:29:22.390Z,2.70
2022-09-15T14:33:38.092Z,3.00
2022-09-15T14:37:52.673Z,2.60
2022-09-15T14:42:12.667Z,2.80
2022-09-15T14:46:21.687Z,3.40
2022-09-15T14:50:33.630Z,3.20
2022-09-15T14:54:44.485Z,3.37
2022-09-15T14:58:59.627Z,3.60
2022-09-15T15:03:27.908Z,3.60
2022-09-15T15:07:40.267Z,3.53
2022-09-15T15:11:54.827Z,3.20
2022-09-15T15:16:08.646Z,3.67
2022-09-15T15:20:21.241Z,3.40
2022-09-15T15:24:30.368Z,3.50
2022-09-15T15:28:40.986Z,3.27
2022-09-15T15:32:50.068Z,3.10
2022-09-15T15:37:04.629Z,3.00
2022-09-15T15:41:21.711Z,3.30
2022-09-15T15:45:34.791Z,3.40
2022-09-15T15:50:11.739Z,3.27
2022-09-15T15:54:15.907Z,2.93
2022-09-15T15:58:25.307Z,2.87
2022-09-15T16:02:35.968Z,3.53
2022-09-15T16:06:46.206Z,2.90
2022-09-15T16:10:56.865Z,3.10
2022-09-15T16:15:13.628Z,2.80
2022-09-15T16:19:24.147Z,2.60
2022-09-15T16:23:34.606Z,3.03
2022-09-15T16:27:43.845Z,3.10
2022-09-15T16:31:53.322Z,2.83
2022-09-15T16:36:07.312Z,2.37
2022-09-15T16:40:18.209Z,2.93
2022-09-15T16:44:27.575Z,2.50
2022-09-15T16:48:36.668Z,2.70
2022-09-15T16:52:48.626Z,2.67
2022-09-15T16:56:57.946Z,2.27
2022-09-15T17:01:07.858Z,2.30
2022-09-15T17:05:25.286Z,2.33
2022-09-15T17:09:47.289Z,2.60
2022-09-15T17:13:56.786Z,1.93
2022-09-15T17:18:07.113Z,2.23
2022-09-15T17:22:47.028Z,2.33
2022-09-15T17:26:57.907Z,2.30
2022-09-15T17:31:13.612Z,2.10
2022-09-15T17:35:24.985Z,2.20
2022-09-15T17:39:35.725Z,2.13
2022-09-15T17:43:46.602Z,1.90
2022-09-15T17:47:56.205Z,1.87
2022-09-15T17:52:05.429Z,1.73
2022-09-15T17:56:14.585Z,2.00
2022-09-15T18:00:26.527Z,1.80
2022-09-15T18:04:35.528Z,1.77
2022-09-15T18:08:44.530Z,1.80
2022-09-15T18:12:55.615Z,2.00
2022-09-15T18:17:06.527Z,1.70
2022-09-15T18:21:25.485Z,1.87
2022-09-15T18:25:36.866Z,1.70
2022-09-15T18:29:45.908Z,1.83
2022-09-15T18:33:56.369Z,1.77
2022-09-15T18:38:05.405Z,1.83
2022-09-15T18:42:14.427Z,1.50
2022-09-15T18:46:23.583Z,1.70
2022-09-15T18:50:34.191Z,1.50
2022-09-15T18:54:43.385Z,1.70
2022-09-15T18:58:54.949Z,1.73
2022-09-15T19:03:05.607Z,1.67
2022-09-15T19:07:16.205Z,1.50
2022-09-15T19:11:25.286Z,1.63
2022-09-15T19:15:35.527Z,1.60
2022-09-15T19:19:46.687Z,1.90
2022-09-15T19:23:59.906Z,1.80
2022-09-15T19:28:08.807Z,1.80
2022-09-15T19:32:19.407Z,1.50
2022-09-15T19:36:29.211Z,1.73
2022-09-15T19:40:40.047Z,1.60
2022-09-15T19:44:49.763Z,2.10
2022-09-15T19:48:59.608Z,2.17
2022-09-15T19:53:10.174Z,2.23
2022-09-15T19:57:22.947Z,1.50
2022-09-15T20:01:33.272Z,1.60
2022-09-15T20:05:42.401Z,1.67
2022-09-15T20:09:54.859Z,1.40
2022-09-15T20:14:08.018Z,1.47
2022-09-15T20:18:17.499Z,1.77
2022-09-15T20:22:26.520Z,1.53
2022-09-15T20:26:37.045Z,1.77
2022-09-15T20:30:47.676Z,1.70
2022-09-15T20:34:56.959Z,1.90
2022-09-15T20:39:09.065Z,1.97
2022-09-15T20:43:18.207Z,1.70
2022-09-15T20:47:29.167Z,1.60
2022-09-15T20:51:38.247Z,1.50
2022-09-15T20:55:53.647Z,1.40
2022-09-15T21:00:05.110Z,1.60
2022-09-15T21:04:15.908Z,1.40
2022-09-15T21:08:25.046Z,1.67
2022-09-15T21:12:34.187Z,1.70
2022-09-15T21:16:44.177Z,1.70
2022-09-15T21:20:59.245Z,2.20
2022-09-15T21:25:09.026Z,1.57
2022-09-15T21:29:18.128Z,1.40
2022-09-15T21:33:28.286Z,1.90
2022-09-15T21:37:39.646Z,1.90
2022-09-15T21:41:48.787Z,1.60
2022-09-15T21:45:58.081Z,1.47
2022-09-15T21:50:08.665Z,1.60
2022-09-15T21:54:19.367Z,1.80
2022-09-15T21:58:32.387Z,1.90
2022-09-15T22:02:41.513Z,1.90
2022-09-15T22:06:51.128Z,1.97
2022-09-15T22:11:02.788Z,1.63
2022-09-15T22:15:12.587Z,1.50
2022-09-15T22:19:21.887Z,1.50
2022-09-15T22:23:30.946Z,1.57
2022-09-15T22:27:41.608Z,1.60
2022-09-15T22:31:50.741Z,1.77
2022-09-15T22:36:00.427Z,1.53
2022-09-15T22:40:10.637Z,2.30
2022-09-15T22:44:22.087Z,2.30
2022-09-15T22:48:31.386Z,1.80
2022-09-15T22:52:40.528Z,1.93
2022-09-15T22:56:49.546Z,2.23
2022-09-15T23:01:06.572Z,2.03
2022-09-15T23:05:15.807Z,2.37
2022-09-15T23:09:24.798Z,2.40
2022-09-15T23:13:35.047Z,2.30
2022-09-15T23:17:45.629Z,2.00
2022-09-15T23:21:54.787Z,2.13
2022-09-15T23:26:04.468Z,2.17
2022-09-15T23:30:14.825Z,2.67
2022-09-15T23:34:25.589Z,2.10
2022-09-15T23:38:37.849Z,2.10
2022-09-15T23:42:46.831Z,2.27
2022-09-15T23:46:55.996Z,1.97
2022-09-15T23:51:06.913Z,2.03
2022-09-15T23:55:16.227Z,2.00
2022-09-15T23:59:25.369Z,1.87
